.
WxDataArchive / Data Records for 2012-10-24
2012-10-23 October 2012 2012-10-25

Data Records for Wednesday, 24 October 2012

Time	Temp	Chill	HIndex	Humid	Dewpt	 Wind 	HiWind	WindDir	Rain 	Barom 
-----	----	-----	------	-----	-----	------	------	-------	-----	----- 
00:00	60.1	60.1	60.1	91	57.5	0	1	270	0.00	29.990 
00:05	60.1	60.1	60.1	91	57.5	0	1	270	0.00	29.990 
00:10	60.1	60.1	60.1	91	57.5	0	0	---	0.00	29.990 
00:15	60.1	60.1	60.1	91	57.5	0	0	---	0.00	29.996 
00:20	60.1	60.1	60.1	91	57.5	0	0	---	0.00	29.996 
00:25	60.1	60.1	60.1	91	57.5	0	0	---	0.00	29.996 
00:30	60.1	60.1	60.1	92	57.8	0	0	---	0.00	29.996 
00:35	60.1	60.1	60.1	92	57.8	0	0	---	0.00	29.996 
00:40	60.1	60.1	60.1	92	57.8	0	0	---	0.00	29.996 
00:45	60.1	60.1	60.1	92	57.8	0	0	---	0.00	29.996 
00:50	60.2	60.2	60.2	92	57.9	0	0	---	0.00	29.996 
00:55	60.2	60.2	60.2	92	57.9	0	0	---	0.00	29.996 
01:00	60.2	60.2	60.2	92	57.9	0	0	---	0.00	29.990 
01:05	60.2	60.2	60.2	92	57.9	0	1	270	0.00	29.990 
01:10	60.2	60.2	60.2	92	57.9	0	1	270	0.00	29.990 
01:15	60.2	60.2	60.2	92	57.9	0	0	---	0.00	29.991 
01:20	60.2	60.2	60.2	92	57.9	0	1	270	0.00	29.991 
01:25	60.2	60.2	60.2	92	57.9	0	1	270	0.00	29.991 
01:30	60.4	60.4	60.4	92	58.1	0	1	270	0.00	29.993 
01:35	60.4	60.4	60.4	92	58.1	0	0	---	0.00	29.993 
01:40	60.4	60.4	60.4	92	58.1	0	0	---	0.00	29.993 
01:45	60.2	60.2	60.2	92	57.9	0	0	---	0.00	29.993 
01:50	60.2	60.2	60.2	92	57.9	0	0	---	0.00	29.993 
01:55	60.2	60.2	60.2	92	57.9	0	1	270	0.01	29.993 
02:00	60.2	60.2	60.2	92	57.9	0	1	270	0.00	29.994 
02:05	60.2	60.2	60.2	92	57.9	0	0	---	0.00	29.994 
02:10	60.2	60.2	60.2	92	57.9	0	0	---	0.00	29.994 
02:15	60.2	60.2	60.2	93	58.2	0	0	---	0.00	29.991 
02:20	60.2	60.2	60.2	93	58.2	0	0	---	0.00	29.991 
02:25	60.2	60.2	60.2	93	58.2	0	1	270	0.00	29.991 
02:30	60.1	60.1	60.1	93	58.1	0	1	270	0.00	29.988 
02:35	60.1	60.1	60.1	93	58.1	0	0	---	0.00	29.988 
02:40	60.1	60.1	60.1	93	58.1	0	0	---	0.00	29.988 
02:45	60.1	60.1	60.1	93	58.1	0	0	---	0.00	29.991 
02:50	60.1	60.1	60.1	93	58.1	0	0	---	0.00	29.991 
02:55	60.1	60.1	60.1	93	58.1	0	0	---	0.00	29.991 
03:00	60.1	60.1	60.1	93	58.1	0	0	---	0.00	29.991 
03:05	60.1	60.1	60.1	93	58.1	0	0	---	0.00	29.991 
03:10	60.1	60.1	60.1	93	58.1	0	0	---	0.00	29.991 
03:15	60.1	60.1	60.1	93	58.1	0	1	270	0.00	29.983 
03:20	59.9	59.9	59.9	93	57.9	0	1	270	0.00	29.983 
03:25	59.8	59.8	59.8	93	57.8	0	0	---	0.00	29.983 
03:30	59.6	59.6	59.6	93	57.6	0	0	---	0.00	29.982 
03:35	59.5	59.5	59.5	93	57.5	0	0	---	0.00	29.982 
03:40	59.3	59.3	59.3	93	57.3	0	1	270	0.00	29.982 
03:45	59.3	59.3	59.3	93	57.3	0	0	---	0.00	29.984 
03:50	59.3	59.3	59.3	93	57.3	0	0	---	0.00	29.984 
03:55	59.2	59.2	59.2	92	56.9	0	0	---	0.00	29.984 
04:00	59.2	59.2	59.2	92	56.9	0	0	---	0.00	29.981 
04:05	59.2	59.2	59.2	92	56.9	0	0	---	0.00	29.981 
04:10	59.2	59.2	59.2	92	56.9	0	0	---	0.00	29.981 
04:15	59.2	59.2	59.2	91	56.6	0	1	270	0.00	29.976 
04:20	59.2	59.2	59.2	91	56.6	0	0	---	0.00	29.976 
04:25	59.2	59.2	59.2	90	56.3	0	0	---	0.00	29.976 
04:30	59.3	59.3	59.3	90	56.4	0	0	---	0.00	29.977 
04:35	59.5	59.5	59.5	89	56.3	0	1	270	0.00	29.977 
04:40	59.5	59.5	59.5	88	55.9	0	0	---	0.00	29.977 
04:45	59.6	59.6	59.6	88	56.0	0	1	270	0.00	29.981 
04:50	59.8	59.8	59.8	87	55.9	0	1	270	0.00	29.981 
04:55	59.9	59.9	59.9	86	55.7	0	1	270	0.00	29.981 
05:00	60.1	60.1	60.1	85	55.6	0	1	270	0.00	29.982 
05:05	60.2	60.2	60.2	84	55.3	0	2	270	0.00	29.982 
05:10	60.4	60.4	60.4	84	55.5	0	2	270	0.00	29.982 
05:15	60.4	60.4	60.4	83	55.2	0	1	270	0.00	29.978 
05:20	60.4	60.4	60.4	83	55.2	0	1	270	0.00	29.978 
05:25	60.4	60.4	60.4	83	55.2	0	1	270	0.00	29.978 
05:30	60.5	60.5	60.5	82	55.0	0	1	270	0.00	29.975 
05:35	60.5	60.5	60.5	82	55.0	0	1	270	0.00	29.975 
05:40	60.7	60.7	60.7	82	55.2	0	1	270	0.00	29.975 
05:45	60.9	60.9	60.9	81	55.0	0	2	270	0.00	29.978 
05:50	61.2	61.2	61.2	80	55.0	0	3	270	0.00	29.978 
05:55	61.5	61.5	61.5	79	54.9	0	3	22	0.00	29.978 
06:00	61.6	61.6	61.6	78	54.7	0	1	22	0.00	29.982 
06:05	62.0	62.0	62.0	77	54.7	0	1	338	0.00	29.982 
06:10	62.1	62.1	62.1	77	54.8	0	1	338	0.00	29.982 
06:15	62.1	62.1	62.1	77	54.8	0	1	338	0.00	29.984 
06:20	62.0	62.0	62.0	77	54.7	0	1	338	0.00	29.984 
06:25	62.0	62.0	62.0	77	54.7	0	1	338	0.00	29.984 
06:30	61.8	61.8	61.8	76	54.1	0	1	338	0.00	29.987 
06:35	61.6	61.6	61.6	76	54.0	0	1	338	0.00	29.987 
06:40	61.5	61.5	61.5	77	54.2	0	1	338	0.00	29.987 
06:45	61.3	61.3	61.3	77	54.0	0	1	338	0.00	29.996 
06:50	61.3	61.3	61.3	77	54.0	0	1	338	0.00	29.996 
06:55	61.5	61.5	61.5	76	53.9	0	2	338	0.00	29.996 
07:00	61.6	61.6	61.6	76	54.0	0	1	338	0.00	29.999 
07:05	61.6	61.6	61.6	76	54.0	0	0	---	0.00	29.999 
07:10	61.6	61.6	61.6	75	53.6	0	1	338	0.00	29.999 
07:15	61.6	61.6	61.6	75	53.6	0	2	338	0.00	30.001 
07:20	61.6	61.6	61.6	75	53.6	0	1	338	0.00	30.001 
07:25	61.8	61.8	61.8	75	53.8	0	1	338	0.00	30.001 
07:30	61.8	61.8	61.8	75	53.8	0	1	338	0.00	30.003 
07:35	61.8	61.8	61.8	75	53.8	0	1	338	0.00	30.003 
07:40	61.8	61.8	61.8	74	53.4	0	2	338	0.00	30.003 
07:45	61.8	61.8	61.8	74	53.4	0	2	338	0.00	30.006 
07:50	61.6	61.6	61.6	74	53.2	0	2	270	0.00	30.006 
07:55	61.5	61.5	61.5	75	53.5	0	1	270	0.00	30.006 
08:00	61.3	61.3	61.3	75	53.3	0	1	270	0.00	30.002 
08:05	61.2	61.2	61.2	75	53.2	0	1	270	0.00	30.002 
08:10	61.0	61.0	61.0	75	53.0	0	2	270	0.00	30.002 
08:15	60.9	60.9	60.9	76	53.3	0	1	270	0.00	30.009 
08:20	60.9	60.9	60.9	76	53.3	0	0	---	0.00	30.009 
08:25	60.7	60.7	60.7	76	53.1	0	1	270	0.00	30.009 
08:30	60.5	60.5	60.5	77	53.2	0	0	---	0.00	30.016 
08:35	60.4	60.4	60.4	77	53.2	0	1	270	0.00	30.016 
08:40	60.2	60.2	60.2	77	53.0	0	1	270	0.00	30.016 
08:45	60.1	60.1	60.1	77	52.9	0	1	270	0.00	30.016 
08:50	60.1	60.1	60.1	78	53.2	0	2	270	0.00	30.016 
08:55	60.1	60.1	60.1	78	53.2	0	1	270	0.00	30.016 
09:00	60.1	60.1	60.1	78	53.2	0	1	270	0.00	30.017 
09:05	60.4	60.4	60.4	78	53.5	0	1	270	0.00	30.017 
09:10	60.7	60.7	60.7	77	53.4	0	3	270	0.00	30.017 
09:15	61.0	61.0	61.0	77	53.7	0	2	270	0.00	30.018 
09:20	61.3	61.3	61.3	75	53.3	1	3	270	0.00	30.018 
09:25	61.8	61.8	61.8	75	53.8	0	4	292	0.00	30.018 
09:30	62.1	62.1	62.1	74	53.7	0	2	248	0.00	30.016 
09:35	62.4	62.4	62.4	73	53.6	1	2	248	0.00	30.016 
09:40	62.9	62.9	62.9	72	53.7	0	2	248	0.00	30.016 
09:45	63.2	63.2	63.2	71	53.6	1	4	248	0.00	30.016 
09:50	63.7	63.7	63.7	71	54.1	1	4	292	0.00	30.016 
09:55	64.2	64.2	64.2	69	53.8	1	3	270	0.00	30.016 
10:00	64.5	64.5	64.5	69	54.1	0	3	270	0.00	30.014 
10:05	65.0	65.0	65.0	68	54.2	1	4	248	0.00	30.014 
10:10	65.3	65.3	65.3	67	54.1	2	4	248	0.00	30.014 
10:15	65.6	65.6	65.6	67	54.3	1	3	270	0.00	30.014 
10:20	66.0	66.0	66.0	65	53.9	1	4	248	0.00	30.014 
10:25	66.3	66.3	66.3	65	54.2	1	3	225	0.00	30.014 
10:30	66.6	66.6	66.6	64	54.0	2	5	248	0.00	30.013 
10:35	66.9	66.9	66.9	64	54.3	2	5	248	0.00	30.013 
10:40	67.3	67.3	67.3	65	55.1	1	5	248	0.00	30.013 
10:45	67.4	67.4	67.4	62	53.9	2	7	248	0.00	30.014 
10:50	67.6	67.6	67.6	63	54.5	2	5	248	0.00	30.014 
10:55	67.9	67.9	67.9	63	54.8	2	4	248	0.00	30.014 
11:00	68.3	68.3	68.3	63	55.2	1	4	248	0.00	30.011 
11:05	68.6	68.6	68.6	62	55.0	1	5	248	0.00	30.011 
11:10	68.9	68.9	68.9	62	55.3	1	3	248	0.00	30.011 
11:15	69.1	69.1	69.1	61	55.1	2	4	248	0.00	30.009 
11:20	69.3	69.3	69.3	62	55.7	1	4	248	0.00	30.009 
11:25	69.4	69.4	69.4	61	55.4	2	9	248	0.00	30.009 
11:30	69.4	69.4	69.4	60	54.9	2	4	248	0.00	30.012 
11:35	69.6	69.6	69.6	61	55.5	3	9	248	0.00	30.012 
11:40	69.8	69.8	69.8	61	55.7	2	5	248	0.00	30.012 
11:45	70.1	70.1	70.1	62	56.5	0	2	248	0.00	30.009 
11:50	70.6	70.6	70.6	61	56.5	1	2	270	0.00	30.009 
11:55	70.9	70.9	70.9	59	55.8	1	4	248	0.00	30.009 
12:00	71.1	71.1	71.1	59	56.0	1	6	270	0.00	30.007 
12:05	71.5	71.5	71.5	59	56.4	1	3	270	0.00	30.007 
12:10	71.6	71.6	71.6	59	56.5	1	3	248	0.00	30.007 
12:15	71.8	71.8	71.8	58	56.2	1	4	248	0.00	30.006 
12:20	72.0	72.0	72.0	59	56.9	1	4	270	0.00	30.006 
12:25	72.3	72.3	72.3	59	57.2	2	4	248	0.00	30.006 
12:30	72.5	72.5	72.5	58	56.9	1	3	270	0.00	30.004 
12:35	72.5	72.5	72.5	58	56.9	1	5	248	0.00	30.004 
12:40	72.5	72.5	72.5	58	56.9	2	4	248	0.00	30.004 
12:45	72.7	72.7	72.7	57	56.6	1	4	248	0.00	29.996 
12:50	72.8	72.8	72.8	57	56.7	1	4	248	0.00	29.996 
12:55	73.0	73.0	73.0	60	58.3	0	2	248	0.00	29.996 
13:00	73.3	73.3	73.3	58	57.6	1	5	90	0.00	29.994 
13:05	73.5	73.5	73.5	57	57.3	1	4	248	0.00	29.994 
13:10	73.7	73.7	73.7	59	58.5	0	3	248	0.00	29.994 
13:15	73.9	73.9	73.9	59	58.7	1	3	248	0.00	29.991 
13:20	74.0	74.0	74.0	58	58.3	1	4	248	0.00	29.991 
13:25	74.2	74.2	74.2	58	58.5	1	4	248	0.00	29.991 
13:30	74.4	74.4	74.4	58	58.6	1	4	248	0.00	29.984 
13:35	74.4	74.4	74.4	58	58.6	1	3	248	0.00	29.984 
13:40	74.4	74.4	74.4	57	58.2	1	3	248	0.00	29.984 
13:45	74.6	74.6	74.6	58	58.8	0	2	248	0.00	29.978 
13:50	74.7	74.7	74.7	56	57.9	1	4	248	0.00	29.978 
13:55	74.7	74.7	74.7	57	58.4	1	3	270	0.00	29.978 
14:00	75.1	75.1	77.5	58	59.3	1	6	270	0.00	29.974 
14:05	75.1	75.1	77.6	56	58.3	1	5	68	0.00	29.974 
14:10	75.1	75.1	77.6	56	58.3	1	3	292	0.00	29.974 
14:15	75.1	75.1	77.5	58	59.3	1	4	270	0.00	29.964 
14:20	75.3	75.3	77.6	58	59.5	1	3	270	0.00	29.964 
14:25	75.6	75.6	77.8	57	59.3	1	5	90	0.00	29.964 
14:30	75.8	75.8	77.9	57	59.5	1	3	90	0.00	29.963 
14:35	76.0	76.0	78.1	56	59.2	1	5	90	0.00	29.963 
14:40	76.1	76.1	78.1	57	59.7	1	4	248	0.00	29.963 
14:45	76.3	76.3	78.3	55	58.9	1	4	338	0.00	29.958 
14:50	76.3	76.3	78.3	56	59.4	1	4	248	0.00	29.958 
14:55	76.5	76.5	78.4	56	59.6	1	3	0	0.00	29.958 
15:00	76.5	76.5	78.4	57	60.1	1	3	0	0.00	29.951 
15:05	76.7	76.7	78.5	56	59.8	1	6	270	0.00	29.951 
15:10	76.7	76.7	78.5	56	59.8	1	3	248	0.00	29.951 
15:15	76.8	76.8	78.6	56	59.9	1	4	270	0.00	29.954 
15:20	77.0	77.0	78.7	55	59.6	1	4	248	0.00	29.954 
15:25	77.4	77.4	79.0	55	59.9	1	3	248	0.00	29.954 
15:30	77.4	77.4	79.0	55	59.9	1	3	248	0.00	29.953 
15:35	77.0	77.0	78.7	55	59.6	1	4	248	0.00	29.953 
15:40	77.0	77.0	78.7	55	59.6	1	5	248	0.00	29.953 
15:45	77.2	77.2	78.9	55	59.8	1	4	270	0.00	29.949 
15:50	77.2	77.2	78.9	56	60.3	1	3	0	0.00	29.949 
15:55	77.2	77.2	78.9	56	60.3	1	4	112	0.00	29.949 
16:00	77.4	77.4	79.0	54	59.4	1	4	112	0.00	29.944 
16:05	77.4	77.4	79.0	55	59.9	1	5	90	0.00	29.944 
16:10	77.4	77.4	79.0	55	59.9	1	4	112	0.00	29.944 
16:15	77.4	77.4	79.0	56	60.5	1	2	135	0.00	29.944 
16:20	77.2	77.2	78.9	56	60.3	1	6	68	0.00	29.944 
16:25	77.0	77.0	78.7	56	60.1	1	4	68	0.00	29.944 
16:30	76.8	76.8	78.6	55	59.4	1	4	248	0.00	29.943 
16:35	76.8	76.8	78.6	55	59.4	1	4	248	0.00	29.943 
16:40	76.8	76.8	78.6	55	59.4	1	4	112	0.00	29.943 
16:45	76.5	76.5	78.4	57	60.1	2	5	45	0.00	29.942 
16:50	76.3	76.3	78.3	56	59.4	1	3	338	0.00	29.942 
16:55	76.1	76.1	78.1	57	59.7	1	4	270	0.00	29.942 
17:00	76.1	76.1	78.1	57	59.7	0	3	270	0.00	29.943 
17:05	76.1	76.1	78.1	57	59.7	0	1	270	0.00	29.943 
17:10	76.1	76.1	78.1	57	59.7	0	1	270	0.00	29.943 
17:15	76.0	76.0	78.1	56	59.2	1	4	270	0.00	29.941 
17:20	76.0	76.0	78.1	57	59.6	0	2	248	0.00	29.941 
17:25	76.1	76.1	78.1	56	59.2	0	2	270	0.00	29.941 
17:30	76.0	76.0	78.1	57	59.6	1	3	270	0.00	29.940 
17:35	76.0	76.0	78.1	57	59.6	1	3	270	0.00	29.940 
17:40	76.0	76.0	78.1	57	59.6	1	4	248	0.00	29.940 
17:45	75.8	75.8	77.9	57	59.5	1	4	248	0.00	29.941 
17:50	75.8	75.8	77.9	57	59.5	1	2	90	0.00	29.941 
17:55	75.6	75.6	77.8	58	59.8	0	1	68	0.00	29.941 
18:00	75.4	75.4	77.7	57	59.1	0	3	68	0.00	29.942 
18:05	75.3	75.3	77.6	57	59.0	0	3	248	0.00	29.942 
18:10	74.9	74.9	74.9	58	59.1	1	4	248	0.00	29.942 
18:15	74.7	74.7	74.7	58	58.9	0	3	90	0.00	29.943 
18:20	74.6	74.6	74.6	58	58.8	0	1	90	0.00	29.943 
18:25	74.4	74.4	74.4	58	58.6	1	4	90	0.00	29.943 
18:30	74.2	74.2	74.2	58	58.5	0	2	68	0.00	29.942 
18:35	74.0	74.0	74.0	58	58.3	0	2	45	0.00	29.942 
18:40	73.9	73.9	73.9	58	58.2	0	0	---	0.00	29.942 
18:45	73.5	73.5	73.5	59	58.3	0	1	45	0.00	29.943 
18:50	73.2	73.2	73.2	59	58.0	0	1	45	0.00	29.943 
18:55	72.8	72.8	72.8	60	58.1	0	0	---	0.00	29.943 
19:00	72.5	72.5	72.5	61	58.3	0	0	---	0.00	29.946 
19:05	72.1	72.1	72.1	61	57.9	0	1	45	0.00	29.946 
19:10	71.8	71.8	71.8	62	58.1	0	0	---	0.00	29.946 
19:15	71.5	71.5	71.5	62	57.8	0	0	---	0.00	29.951 
19:20	71.1	71.1	71.1	62	57.4	0	0	---	0.00	29.951 
19:25	70.9	70.9	70.9	63	57.7	0	0	---	0.00	29.951 
19:30	70.6	70.6	70.6	63	57.4	0	0	---	0.00	29.954 
19:35	70.4	70.4	70.4	64	57.6	0	0	---	0.00	29.954 
19:40	70.1	70.1	70.1	64	57.3	0	0	---	0.00	29.954 
19:45	69.8	69.8	69.8	64	57.1	0	0	---	0.00	29.961 
19:50	69.4	69.4	69.4	65	57.1	0	0	---	0.00	29.961 
19:55	69.1	69.1	69.1	66	57.3	0	0	---	0.00	29.961 
20:00	68.6	68.6	68.6	67	57.2	0	0	---	0.00	29.961 
20:05	68.1	68.1	68.1	67	56.7	0	0	---	0.00	29.961 
20:10	67.8	67.8	67.8	68	56.8	0	0	---	0.00	29.961 
20:15	67.4	67.4	67.4	69	56.9	0	0	---	0.00	29.963 
20:20	66.9	66.9	66.9	70	56.8	0	0	---	0.00	29.963 
20:25	66.4	66.4	66.4	71	56.7	0	0	---	0.00	29.963 
20:30	66.0	66.0	66.0	71	56.3	0	0	---	0.00	29.965 
20:35	65.6	65.6	65.6	72	56.3	0	0	---	0.00	29.965 
20:40	65.3	65.3	65.3	72	56.0	0	0	---	0.00	29.965 
20:45	65.0	65.0	65.0	73	56.1	0	0	---	0.00	29.967 
20:50	64.7	64.7	64.7	73	55.8	0	0	---	0.00	29.967 
20:55	64.5	64.5	64.5	73	55.6	0	0	---	0.00	29.967 
21:00	64.5	64.5	64.5	73	55.6	0	0	---	0.00	29.968 
21:05	64.3	64.3	64.3	73	55.5	0	0	---	0.00	29.968 
21:10	64.2	64.2	64.2	72	55.0	0	0	---	0.00	29.968 
21:15	64.0	64.0	64.0	71	54.4	0	0	---	0.00	29.966 
21:20	64.0	64.0	64.0	70	54.0	0	0	---	0.00	29.966 
21:25	64.0	64.0	64.0	69	53.6	0	0	---	0.00	29.966 
21:30	64.2	64.2	64.2	69	53.8	0	0	---	0.00	29.967 
21:35	64.3	64.3	64.3	68	53.5	0	0	---	0.00	29.967 
21:40	64.5	64.5	64.5	67	53.3	0	0	---	0.00	29.967 
21:45	64.3	64.3	64.3	67	53.1	0	0	---	0.00	29.969 
21:50	64.3	64.3	64.3	67	53.1	0	0	---	0.00	29.969 
21:55	64.5	64.5	64.5	66	52.9	0	0	---	0.00	29.969 
22:00	64.7	64.7	64.7	66	53.1	0	0	---	0.00	29.966 
22:05	65.0	65.0	65.0	65	52.9	0	0	---	0.00	29.966 
22:10	65.2	65.2	65.2	65	53.1	0	0	---	0.00	29.966 
22:15	65.2	65.2	65.2	65	53.1	0	1	45	0.00	29.966 
22:20	65.3	65.3	65.3	64	52.8	0	0	---	0.00	29.966 
22:25	65.5	65.5	65.5	64	53.0	0	1	45	0.00	29.966 
22:30	65.5	65.5	65.5	64	53.0	0	1	45	0.00	29.965 
22:35	65.5	65.5	65.5	64	53.0	0	1	45	0.00	29.965 
22:40	65.5	65.5	65.5	64	53.0	0	0	---	0.00	29.965 
22:45	65.3	65.3	65.3	64	52.8	0	1	45	0.00	29.969 
22:50	65.2	65.2	65.2	64	52.7	0	0	---	0.00	29.969 
22:55	65.2	65.2	65.2	64	52.7	0	0	---	0.00	29.969 
23:00	65.0	65.0	65.0	64	52.5	0	0	---	0.00	29.968 
23:05	65.0	65.0	65.0	64	52.5	0	0	---	0.00	29.968 
23:10	64.8	64.8	64.8	65	52.8	0	0	---	0.00	29.968 
23:15	64.8	64.8	64.8	65	52.8	0	2	45	0.00	29.967 
23:20	64.8	64.8	64.8	65	52.8	0	2	248	0.00	29.967 
23:25	64.8	64.8	64.8	65	52.8	0	1	248	0.00	29.967 
23:30	64.7	64.7	64.7	65	52.7	0	1	248	0.00	29.967 
23:35	64.7	64.7	64.7	65	52.7	0	1	248	0.00	29.967 
23:40	64.7	64.7	64.7	65	52.7	0	1	248	0.00	29.967 
23:45	64.5	64.5	64.5	65	52.5	0	2	248	0.00	29.969 
23:50	64.5	64.5	64.5	65	52.5	0	1	248	0.00	29.969 
23:55	64.3	64.3	64.3	65	52.3	0	2	248	0.00	29.969 

CoCoRaHS
IN-AL-39
A2 Web Hosting
Creative Commons License
GoDaddy
search engine by freefind advanced

loaded 2018-11-17 12:49:12 • last modified 2010-11-18 10:43:29
Privacy PolicyDisclaimer
• wx.awcolley.com is powered by PmWiki v.2002016 •
• all content (unless otherwise noted) © 2018 A W Colley